Lathrup Village, Michigan
Current Conditions -  °F | °C
As of 11:35 AM on Friday 31 Oct 2014 (Local Time) from KVLL Reporting Station
Drizzle Drizzle  
Wind Chill: 45°   Ceiling: 2100
Heat Index: 45°   Visibility: 10mi
Dew Point: 40°   Wind: 3mph
Humidity: 83%   Direction: 310°NW
Pressure: 29.89"   Gusts: NA
Location:  42.4974°N, 83.2307°W
Report Text: KVLL 311535Z AUTO 31003KT 10SM -DZ OVC021 07/04 A2989 RMK AO2 T00700043
Loading
Personal Weather Stations






























Interactive Weather Map
Tropical Storm Tracking
New forecast layout! Learn more

10-Day Weather Forecast

Advertisements
Track Severe Weather on mobile